DLH25K EDDF-LFRS
Flight info
| Callsign | DLH25K |
|---|---|
| Flight time | N/A |
| Altitude | 35000 |
| Route | SOBRA2L/18 SOBRA Y180 DIK UN857 TOLVU DCT RAPOR DCT GIMER DCT ESTOC UT300 ELCOB A361 LGL A5 VALAX |
| Aircraft | A319/M-SDE3FGHIRWY/LB1 |
Departure
| Time | 2026-05-08 08:03 |
|---|---|
| Airport | Frankfurt Main Airport (EDDF) |
Arrival
| Time | N/A |
|---|---|
| Airport | Nantes Atlantique Airport (LFRS) |
| Time | Latitude | Longitude | Altitude | Speed | Heading |
|---|---|---|---|---|---|
| 2026-05-08 07:39 | 50.04656 | 8.56808 | 356 ft | 0 kts | 295° |
| 2026-05-08 07:51 | 50.04654 | 8.56814 | 356 ft | 3 kts | 295° |
| 2026-05-08 07:52 | 50.04643 | 8.56852 | 363 ft | 4 kts | 295° |
| 2026-05-08 07:52 | 50.04633 | 8.56885 | 359 ft | 4 kts | 284° |
| 2026-05-08 07:52 | 50.04634 | 8.56920 | 359 ft | 4 kts | 226° |
| 2026-05-08 07:52 | 50.04656 | 8.56938 | 362 ft | 4 kts | 197° |
| 2026-05-08 07:53 | 50.04670 | 8.56946 | 359 ft | 0 kts | 205° |
| 2026-05-08 07:53 | 50.04648 | 8.56931 | 364 ft | 2 kts | 204° |
| 2026-05-08 07:53 | 50.04646 | 8.56929 | 364 ft | 0 kts | 204° |
| 2026-05-08 07:56 | 50.04639 | 8.56924 | 356 ft | 3 kts | 204° |
| 2026-05-08 07:56 | 50.04606 | 8.56909 | 356 ft | 7 kts | 191° |
| 2026-05-08 07:57 | 50.04556 | 8.56891 | 363 ft | 7 kts | 193° |
| 2026-05-08 07:57 | 50.04497 | 8.56870 | 359 ft | 10 kts | 193° |
| 2026-05-08 07:57 | 50.04415 | 8.56845 | 362 ft | 13 kts | 188° |
| 2026-05-08 07:57 | 50.04326 | 8.56821 | 360 ft | 13 kts | 191° |
| 2026-05-08 07:58 | 50.04244 | 8.56760 | 361 ft | 15 kts | 238° |
| 2026-05-08 07:58 | 50.04205 | 8.56603 | 359 ft | 17 kts | 249° |
| 2026-05-08 07:58 | 50.04161 | 8.56422 | 356 ft | 19 kts | 250° |
| 2026-05-08 07:58 | 50.04115 | 8.56227 | 354 ft | 20 kts | 250° |
| 2026-05-08 07:59 | 50.04066 | 8.56022 | 358 ft | 21 kts | 249° |
| 2026-05-08 07:59 | 50.04015 | 8.55808 | 352 ft | 22 kts | 249° |
| 2026-05-08 07:59 | 50.03961 | 8.55584 | 356 ft | 22 kts | 249° |
| 2026-05-08 07:59 | 50.03907 | 8.55358 | 358 ft | 22 kts | 249° |
| 2026-05-08 08:00 | 50.03853 | 8.55129 | 352 ft | 23 kts | 249° |
| 2026-05-08 08:00 | 50.03796 | 8.54893 | 348 ft | 24 kts | 250° |
| 2026-05-08 08:00 | 50.03737 | 8.54648 | 347 ft | 25 kts | 250° |
| 2026-05-08 08:00 | 50.03676 | 8.54392 | 351 ft | 26 kts | 250° |
| 2026-05-08 08:01 | 50.03612 | 8.54124 | 345 ft | 27 kts | 249° |
| 2026-05-08 08:01 | 50.03548 | 8.53858 | 336 ft | 26 kts | 250° |
| 2026-05-08 08:01 | 50.03487 | 8.53599 | 338 ft | 25 kts | 250° |
| 2026-05-08 08:01 | 50.03427 | 8.53349 | 335 ft | 25 kts | 249° |
| 2026-05-08 08:02 | 50.03366 | 8.53096 | 335 ft | 24 kts | 250° |
| 2026-05-08 08:02 | 50.03314 | 8.52874 | 333 ft | 20 kts | 250° |
| 2026-05-08 08:02 | 50.03270 | 8.52687 | 334 ft | 14 kts | 250° |
| 2026-05-08 08:02 | 50.03232 | 8.52598 | 335 ft | 10 kts | 198° |
| 2026-05-08 08:03 | 50.03057 | 8.52596 | 336 ft | 60 kts | 179° |
| 2026-05-08 08:03 | 50.02375 | 8.52603 | 335 ft | 133 kts | 180° |
| 2026-05-08 08:03 | 50.01271 | 8.52613 | 491 ft | 173 kts | 179° |
| 2026-05-08 08:03 | 50.00062 | 8.52607 | 1231 ft | 174 kts | 178° |
| 2026-05-08 08:04 | 49.98831 | 8.52656 | 1893 ft | 185 kts | 176° |
| 2026-05-08 08:04 | 49.97464 | 8.52761 | 2296 ft | 211 kts | 175° |
| 2026-05-08 08:04 | 49.95937 | 8.52895 | 2956 ft | 226 kts | 175° |
| 2026-05-08 08:04 | 49.94343 | 8.53022 | 3864 ft | 232 kts | 176° |
| 2026-05-08 08:05 | 49.92725 | 8.53137 | 4850 ft | 234 kts | 177° |
| 2026-05-08 08:05 | 49.91116 | 8.53246 | 5782 ft | 236 kts | 178° |
| 2026-05-08 08:05 | 49.89465 | 8.53354 | 6716 ft | 239 kts | 179° |
| 2026-05-08 08:05 | 49.87793 | 8.53391 | 7594 ft | 242 kts | 186° |
| 2026-05-08 08:06 | 49.86126 | 8.52835 | 8302 ft | 255 kts | 200° |
| 2026-05-08 08:06 | 49.84392 | 8.51859 | 8884 ft | 273 kts | 201° |
| 2026-05-08 08:06 | 49.82590 | 8.50827 | 9756 ft | 279 kts | 201° |
| 2026-05-08 08:06 | 49.80738 | 8.49769 | 10441 ft | 292 kts | 201° |
| 2026-05-08 08:07 | 49.78765 | 8.48587 | 10769 ft | 316 kts | 207° |
| 2026-05-08 08:07 | 49.77013 | 8.46397 | 11059 ft | 336 kts | 234° |
| 2026-05-08 08:07 | 49.76105 | 8.43104 | 11650 ft | 345 kts | 261° |
| 2026-05-08 08:07 | 49.76247 | 8.39393 | 12407 ft | 351 kts | 283° |
| 2026-05-08 08:08 | 49.76839 | 8.35716 | 13223 ft | 354 kts | 284° |
| 2026-05-08 08:08 | 49.77447 | 8.32007 | 14006 ft | 358 kts | 284° |
| 2026-05-08 08:08 | 49.78061 | 8.28261 | 14713 ft | 361 kts | 283° |
| 2026-05-08 08:08 | 49.78675 | 8.24482 | 15423 ft | 364 kts | 283° |
| 2026-05-08 08:09 | 49.79292 | 8.20672 | 16143 ft | 366 kts | 283° |
| 2026-05-08 08:09 | 49.79908 | 8.16830 | 16861 ft | 369 kts | 283° |
| 2026-05-08 08:09 | 49.80516 | 8.13006 | 17554 ft | 372 kts | 283° |
| 2026-05-08 08:09 | 49.81134 | 8.09099 | 18269 ft | 375 kts | 283° |
| 2026-05-08 08:10 | 49.81756 | 8.05159 | 18895 ft | 378 kts | 283° |
| 2026-05-08 08:10 | 49.82382 | 8.01189 | 19505 ft | 381 kts | 283° |
| 2026-05-08 08:10 | 49.83013 | 7.97196 | 20110 ft | 384 kts | 283° |
| 2026-05-08 08:10 | 49.83649 | 7.93161 | 20695 ft | 387 kts | 283° |
| 2026-05-08 08:11 | 49.84289 | 7.89093 | 21281 ft | 390 kts | 283° |
| 2026-05-08 08:11 | 49.84930 | 7.84993 | 21843 ft | 393 kts | 283° |
| 2026-05-08 08:11 | 49.85572 | 7.80862 | 22395 ft | 396 kts | 283° |
| 2026-05-08 08:11 | 49.86218 | 7.76698 | 22923 ft | 399 kts | 283° |
| 2026-05-08 08:12 | 49.86868 | 7.72562 | 23458 ft | 402 kts | 283° |
| 2026-05-08 08:12 | 49.87533 | 7.68335 | 23898 ft | 406 kts | 283° |
| 2026-05-08 08:12 | 49.88200 | 7.64069 | 24314 ft | 409 kts | 282° |